sensor_id;sensor_type;location;lat;lon;timestamp;P1;durP1;ratioP1;P2;durP2;ratioP2
21360;SDS011;10839;43.206;23.550;2023-04-03T00:00:15;1.67;;;1.38;;
21360;SDS011;10839;43.206;23.550;2023-04-03T00:02:41;7.32;;;1.40;;
21360;SDS011;10839;43.206;23.550;2023-04-03T00:05:07;2.22;;;1.40;;
21360;SDS011;10839;43.206;23.550;2023-04-03T00:07:33;3.47;;;1.30;;
21360;SDS011;10839;43.206;23.550;2023-04-03T00:09:59;1.50;;;1.13;;
21360;SDS011;10839;43.206;23.550;2023-04-03T00:12:24;1.67;;;0.90;;
21360;SDS011;10839;43.206;23.550;2023-04-03T00:14:50;1.27;;;0.90;;
21360;SDS011;10839;43.206;23.550;2023-04-03T00:17:16;3.10;;;1.10;;
21360;SDS011;10839;43.206;23.550;2023-04-03T00:19:42;1.10;;;0.90;;
21360;SDS011;10839;43.206;23.550;2023-04-03T00:22:08;1.88;;;1.20;;
21360;SDS011;10839;43.206;23.550;2023-04-03T00:24:33;5.80;;;1.40;;
21360;SDS011;10839;43.206;23.550;2023-04-03T00:26:59;1.25;;;1.10;;
21360;SDS011;10839;43.206;23.550;2023-04-03T00:29:25;2.15;;;1.38;;
21360;SDS011;10839;43.206;23.550;2023-04-03T00:31:51;1.50;;;1.13;;
21360;SDS011;10839;43.206;23.550;2023-04-03T00:34:16;1.48;;;1.02;;
21360;SDS011;10839;43.206;23.550;2023-04-03T00:36:42;2.08;;;1.13;;
21360;SDS011;10839;43.206;23.550;2023-04-03T00:39:08;1.48;;;0.90;;
21360;SDS011;10839;43.206;23.550;2023-04-03T00:41:34;1.90;;;0.98;;
21360;SDS011;10839;43.206;23.550;2023-04-03T00:44:00;2.78;;;1.08;;
21360;SDS011;10839;43.206;23.550;2023-04-03T00:46:26;1.65;;;1.05;;
21360;SDS011;10839;43.206;23.550;2023-04-03T00:48:53;2.92;;;1.17;;
21360;SDS011;10839;43.206;23.550;2023-04-03T00:51:25;1.83;;;1.20;;
21360;SDS011;10839;43.206;23.550;2023-04-03T00:53:53;3.63;;;1.27;;
21360;SDS011;10839;43.206;23.550;2023-04-03T00:56:24;3.25;;;1.38;;
21360;SDS011;10839;43.206;23.550;2023-04-03T00:59:02;2.33;;;1.30;;
21360;SDS011;10839;43.206;23.550;2023-04-03T01:01:31;1.83;;;1.30;;
21360;SDS011;10839;43.206;23.550;2023-04-03T01:04:00;3.63;;;1.20;;
21360;SDS011;10839;43.206;23.550;2023-04-03T01:06:30;2.58;;;1.27;;
21360;SDS011;10839;43.206;23.550;2023-04-03T01:09:05;3.00;;;1.10;;
21360;SDS011;10839;43.206;23.550;2023-04-03T01:11:31;1.52;;;1.10;;
21360;SDS011;10839;43.206;23.550;2023-04-03T01:13:57;2.30;;;1.40;;
21360;SDS011;10839;43.206;23.550;2023-04-03T01:16:24;1.83;;;1.13;;
21360;SDS011;10839;43.206;23.550;2023-04-03T01:18:51;3.72;;;1.30;;
21360;SDS011;10839;43.206;23.550;2023-04-03T01:21:23;3.42;;;1.42;;
21360;SDS011;10839;43.206;23.550;2023-04-03T01:24:20;3.22;;;1.38;;
21360;SDS011;10839;43.206;23.550;2023-04-03T01:26:54;1.63;;;1.20;;
21360;SDS011;10839;43.206;23.550;2023-04-03T01:29:20;1.15;;;0.90;;
21360;SDS011;10839;43.206;23.550;2023-04-03T01:31:53;2.03;;;1.20;;
21360;SDS011;10839;43.206;23.550;2023-04-03T01:34:21;1.88;;;1.20;;
21360;SDS011;10839;43.206;23.550;2023-04-03T01:36:49;2.15;;;1.30;;
21360;SDS011;10839;43.206;23.550;2023-04-03T01:39:16;2.55;;;1.50;;
21360;SDS011;10839;43.206;23.550;2023-04-03T01:41:42;2.00;;;1.30;;
21360;SDS011;10839;43.206;23.550;2023-04-03T01:44:15;2.65;;;1.40;;
21360;SDS011;10839;43.206;23.550;2023-04-03T01:46:40;2.63;;;1.17;;
21360;SDS011;10839;43.206;23.550;2023-04-03T01:49:08;1.58;;;1.05;;
21360;SDS011;10839;43.206;23.550;2023-04-03T01:51:34;2.85;;;1.38;;
21360;SDS011;10839;43.206;23.550;2023-04-03T01:54:01;1.52;;;1.13;;
21360;SDS011;10839;43.206;23.550;2023-04-03T01:56:26;1.50;;;1.17;;
21360;SDS011;10839;43.206;23.550;2023-04-03T01:58:53;1.65;;;1.20;;
21360;SDS011;10839;43.206;23.550;2023-04-03T02:01:18;1.30;;;1.08;;
21360;SDS011;10839;43.206;23.550;2023-04-03T02:03:44;1.83;;;1.10;;
21360;SDS011;10839;43.206;23.550;2023-04-03T02:06:10;1.30;;;1.10;;
21360;SDS011;10839;43.206;23.550;2023-04-03T02:08:36;3.22;;;1.38;;
21360;SDS011;10839;43.206;23.550;2023-04-03T02:11:02;4.25;;;1.40;;
21360;SDS011;10839;43.206;23.550;2023-04-03T02:13:28;3.20;;;1.48;;
21360;SDS011;10839;43.206;23.550;2023-04-03T02:15:54;1.77;;;1.52;;
21360;SDS011;10839;43.206;23.550;2023-04-03T02:18:19;1.73;;;1.40;;
21360;SDS011;10839;43.206;23.550;2023-04-03T02:20:46;2.65;;;1.50;;
21360;SDS011;10839;43.206;23.550;2023-04-03T02:23:12;2.40;;;1.75;;
21360;SDS011;10839;43.206;23.550;2023-04-03T02:25:38;2.80;;;1.40;;
21360;SDS011;10839;43.206;23.550;2023-04-03T02:28:05;1.70;;;1.13;;
21360;SDS011;10839;43.206;23.550;2023-04-03T02:30:31;2.15;;;1.33;;
21360;SDS011;10839;43.206;23.550;2023-04-03T02:32:57;3.28;;;1.25;;
21360;SDS011;10839;43.206;23.550;2023-04-03T02:35:24;1.40;;;1.00;;
21360;SDS011;10839;43.206;23.550;2023-04-03T02:37:51;2.58;;;1.42;;
21360;SDS011;10839;43.206;23.550;2023-04-03T02:40:18;1.75;;;1.20;;
21360;SDS011;10839;43.206;23.550;2023-04-03T02:42:44;2.28;;;1.20;;
21360;SDS011;10839;43.206;23.550;2023-04-03T02:45:10;1.63;;;1.10;;
21360;SDS011;10839;43.206;23.550;2023-04-03T02:47:36;3.65;;;1.10;;
21360;SDS011;10839;43.206;23.550;2023-04-03T02:50:02;1.30;;;1.05;;
21360;SDS011;10839;43.206;23.550;2023-04-03T02:52:30;2.67;;;1.20;;
21360;SDS011;10839;43.206;23.550;2023-04-03T02:54:57;2.17;;;1.35;;
21360;SDS011;10839;43.206;23.550;2023-04-03T02:57:23;1.92;;;1.30;;
21360;SDS011;10839;43.206;23.550;2023-04-03T02:59:49;1.83;;;1.00;;
21360;SDS011;10839;43.206;23.550;2023-04-03T03:02:15;2.47;;;1.20;;
21360;SDS011;10839;43.206;23.550;2023-04-03T03:04:41;1.65;;;1.30;;
21360;SDS011;10839;43.206;23.550;2023-04-03T03:07:08;2.45;;;1.25;;
21360;SDS011;10839;43.206;23.550;2023-04-03T03:09:34;3.42;;;1.73;;
21360;SDS011;10839;43.206;23.550;2023-04-03T03:11:59;5.88;;;1.75;;
21360;SDS011;10839;43.206;23.550;2023-04-03T03:14:25;1.98;;;1.35;;
21360;SDS011;10839;43.206;23.550;2023-04-03T03:16:51;3.25;;;1.30;;
21360;SDS011;10839;43.206;23.550;2023-04-03T03:19:17;4.88;;;1.70;;
21360;SDS011;10839;43.206;23.550;2023-04-03T03:21:43;4.47;;;1.92;;
21360;SDS011;10839;43.206;23.550;2023-04-03T03:24:09;4.03;;;2.08;;
21360;SDS011;10839;43.206;23.550;2023-04-03T03:26:35;5.13;;;2.33;;
21360;SDS011;10839;43.206;23.550;2023-04-03T03:29:03;4.55;;;2.50;;
21360;SDS011;10839;43.206;23.550;2023-04-03T03:31:29;4.50;;;2.13;;
21360;SDS011;10839;43.206;23.550;2023-04-03T03:33:56;5.88;;;2.08;;
21360;SDS011;10839;43.206;23.550;2023-04-03T03:36:22;4.03;;;2.00;;
21360;SDS011;10839;43.206;23.550;2023-04-03T03:38:48;4.70;;;2.60;;
21360;SDS011;10839;43.206;23.550;2023-04-03T03:41:14;6.15;;;2.17;;
21360;SDS011;10839;43.206;23.550;2023-04-03T03:43:42;4.40;;;2.40;;
21360;SDS011;10839;43.206;23.550;2023-04-03T03:46:09;4.22;;;1.95;;
21360;SDS011;10839;43.206;23.550;2023-04-03T03:48:35;3.90;;;1.88;;
21360;SDS011;10839;43.206;23.550;2023-04-03T03:51:01;2.50;;;1.40;;
21360;SDS011;10839;43.206;23.550;2023-04-03T03:53:32;2.55;;;1.80;;
21360;SDS011;10839;43.206;23.550;2023-04-03T03:56:03;2.28;;;1.83;;
21360;SDS011;10839;43.206;23.550;2023-04-03T03:58:31;3.45;;;1.80;;
21360;SDS011;10839;43.206;23.550;2023-04-03T04:01:01;2.80;;;1.65;;
21360;SDS011;10839;43.206;23.550;2023-04-03T04:03:29;2.97;;;1.73;;
21360;SDS011;10839;43.206;23.550;2023-04-03T04:05:55;2.95;;;1.73;;
21360;SDS011;10839;43.206;23.550;2023-04-03T04:08:22;3.38;;;1.98;;
21360;SDS011;10839;43.206;23.550;2023-04-03T04:10:48;4.53;;;1.77;;
21360;SDS011;10839;43.206;23.550;2023-04-03T04:13:16;1.92;;;1.48;;
21360;SDS011;10839;43.206;23.550;2023-04-03T04:15:43;3.22;;;1.90;;
21360;SDS011;10839;43.206;23.550;2023-04-03T04:18:09;3.63;;;2.40;;
21360;SDS011;10839;43.206;23.550;2023-04-03T04:20:36;5.53;;;2.63;;
21360;SDS011;10839;43.206;23.550;2023-04-03T04:23:02;6.75;;;3.53;;
21360;SDS011;10839;43.206;23.550;2023-04-03T04:25:29;5.65;;;3.10;;
21360;SDS011;10839;43.206;23.550;2023-04-03T04:27:55;9.43;;;3.83;;
21360;SDS011;10839;43.206;23.550;2023-04-03T04:30:21;11.68;;;4.55;;
21360;SDS011;10839;43.206;23.550;2023-04-03T04:32:49;7.45;;;3.80;;
21360;SDS011;10839;43.206;23.550;2023-04-03T04:35:15;8.10;;;3.63;;
21360;SDS011;10839;43.206;23.550;2023-04-03T04:37:43;5.43;;;3.10;;
21360;SDS011;10839;43.206;23.550;2023-04-03T04:40:10;8.35;;;2.30;;
21360;SDS011;10839;43.206;23.550;2023-04-03T04:42:37;2.10;;;1.60;;
21360;SDS011;10839;43.206;23.550;2023-04-03T04:45:02;4.93;;;2.67;;
21360;SDS011;10839;43.206;23.550;2023-04-03T04:47:29;6.82;;;3.03;;
21360;SDS011;10839;43.206;23.550;2023-04-03T04:49:56;7.97;;;3.90;;
21360;SDS011;10839;43.206;23.550;2023-04-03T04:52:22;7.50;;;4.25;;
21360;SDS011;10839;43.206;23.550;2023-04-03T04:54:48;20.40;;;6.43;;
21360;SDS011;10839;43.206;23.550;2023-04-03T04:57:14;9.75;;;4.30;;
21360;SDS011;10839;43.206;23.550;2023-04-03T04:59:41;5.47;;;2.83;;
21360;SDS011;10839;43.206;23.550;2023-04-03T05:02:07;3.08;;;2.20;;
21360;SDS011;10839;43.206;23.550;2023-04-03T05:04:35;2.47;;;1.77;;
21360;SDS011;10839;43.206;23.550;2023-04-03T05:07:07;3.70;;;1.25;;
21360;SDS011;10839;43.206;23.550;2023-04-03T05:09:35;2.42;;;1.13;;
21360;SDS011;10839;43.206;23.550;2023-04-03T05:12:01;2.83;;;1.40;;
21360;SDS011;10839;43.206;23.550;2023-04-03T05:14:35;5.70;;;3.15;;
21360;SDS011;10839;43.206;23.550;2023-04-03T05:17:05;3.90;;;1.75;;
21360;SDS011;10839;43.206;23.550;2023-04-03T05:19:34;2.85;;;1.42;;
21360;SDS011;10839;43.206;23.550;2023-04-03T05:22:01;12.13;;;5.63;;
21360;SDS011;10839;43.206;23.550;2023-04-03T05:24:28;16.27;;;7.93;;
21360;SDS011;10839;43.206;23.550;2023-04-03T05:26:54;26.30;;;13.55;;
21360;SDS011;10839;43.206;23.550;2023-04-03T05:29:20;15.25;;;7.72;;
21360;SDS011;10839;43.206;23.550;2023-04-03T05:31:48;12.18;;;4.40;;
21360;SDS011;10839;43.206;23.550;2023-04-03T05:34:16;5.95;;;3.17;;
21360;SDS011;10839;43.206;23.550;2023-04-03T05:36:43;5.88;;;4.25;;
21360;SDS011;10839;43.206;23.550;2023-04-03T05:39:11;50.40;;;19.95;;
21360;SDS011;10839;43.206;23.550;2023-04-03T05:41:40;40.00;;;16.77;;
21360;SDS011;10839;43.206;23.550;2023-04-03T05:44:06;14.57;;;7.63;;
21360;SDS011;10839;43.206;23.550;2023-04-03T05:46:32;11.48;;;6.35;;
21360;SDS011;10839;43.206;23.550;2023-04-03T05:49:02;8.82;;;5.07;;
21360;SDS011;10839;43.206;23.550;2023-04-03T05:51:32;8.52;;;3.03;;
21360;SDS011;10839;43.206;23.550;2023-04-03T05:57:21;5.55;;;2.15;;
21360;SDS011;10839;43.206;23.550;2023-04-03T05:59:48;11.57;;;5.40;;
21360;SDS011;10839;43.206;23.550;2023-04-03T06:02:15;3.92;;;2.58;;
21360;SDS011;10839;43.206;23.550;2023-04-03T06:04:45;3.83;;;2.85;;
21360;SDS011;10839;43.206;23.550;2023-04-03T06:07:14;6.90;;;3.40;;
21360;SDS011;10839;43.206;23.550;2023-04-03T06:09:43;7.18;;;3.88;;
21360;SDS011;10839;43.206;23.550;2023-04-03T06:12:09;8.48;;;4.25;;
21360;SDS011;10839;43.206;23.550;2023-04-03T06:14:36;3.83;;;2.85;;
21360;SDS011;10839;43.206;23.550;2023-04-03T06:17:02;10.73;;;4.22;;
21360;SDS011;10839;43.206;23.550;2023-04-03T06:19:29;6.70;;;3.90;;
21360;SDS011;10839;43.206;23.550;2023-04-03T06:21:56;8.18;;;4.72;;
21360;SDS011;10839;43.206;23.550;2023-04-03T06:24:23;9.45;;;5.88;;
21360;SDS011;10839;43.206;23.550;2023-04-03T06:26:50;9.98;;;5.97;;
21360;SDS011;10839;43.206;23.550;2023-04-03T06:29:18;11.40;;;5.35;;
21360;SDS011;10839;43.206;23.550;2023-04-03T06:31:47;9.93;;;5.30;;
21360;SDS011;10839;43.206;23.550;2023-04-03T06:34:14;9.15;;;4.10;;
21360;SDS011;10839;43.206;23.550;2023-04-03T06:36:40;5.55;;;3.50;;
21360;SDS011;10839;43.206;23.550;2023-04-03T06:39:08;6.70;;;3.25;;
21360;SDS011;10839;43.206;23.550;2023-04-03T06:41:38;6.22;;;3.35;;
21360;SDS011;10839;43.206;23.550;2023-04-03T06:44:04;10.95;;;3.63;;
21360;SDS011;10839;43.206;23.550;2023-04-03T06:46:30;4.78;;;2.58;;
21360;SDS011;10839;43.206;23.550;2023-04-03T06:48:56;4.57;;;3.20;;
21360;SDS011;10839;43.206;23.550;2023-04-03T06:51:23;11.70;;;3.25;;
21360;SDS011;10839;43.206;23.550;2023-04-03T06:53:55;9.48;;;2.53;;
21360;SDS011;10839;43.206;23.550;2023-04-03T06:56:23;8.73;;;2.65;;
21360;SDS011;10839;43.206;23.550;2023-04-03T06:58:50;4.70;;;1.73;;
21360;SDS011;10839;43.206;23.550;2023-04-03T07:01:17;2.10;;;1.70;;
21360;SDS011;10839;43.206;23.550;2023-04-03T07:03:47;4.03;;;1.88;;
21360;SDS011;10839;43.206;23.550;2023-04-03T07:06:14;4.72;;;1.83;;
21360;SDS011;10839;43.206;23.550;2023-04-03T07:08:41;4.30;;;2.08;;
21360;SDS011;10839;43.206;23.550;2023-04-03T07:11:08;4.25;;;1.90;;
21360;SDS011;10839;43.206;23.550;2023-04-03T07:13:34;2.75;;;1.77;;
21360;SDS011;10839;43.206;23.550;2023-04-03T07:16:01;4.60;;;1.38;;
21360;SDS011;10839;43.206;23.550;2023-04-03T07:18:30;2.13;;;1.38;;
21360;SDS011;10839;43.206;23.550;2023-04-03T07:20:57;3.03;;;1.50;;
21360;SDS011;10839;43.206;23.550;2023-04-03T07:23:23;5.28;;;2.38;;
21360;SDS011;10839;43.206;23.550;2023-04-03T07:25:50;3.03;;;1.60;;
21360;SDS011;10839;43.206;23.550;2023-04-03T07:28:18;3.10;;;1.50;;
21360;SDS011;10839;43.206;23.550;2023-04-03T07:30:46;1.85;;;0.70;;
21360;SDS011;10839;43.206;23.550;2023-04-03T07:33:14;2.05;;;0.90;;
21360;SDS011;10839;43.206;23.550;2023-04-03T07:35:42;1.30;;;0.70;;
21360;SDS011;10839;43.206;23.550;2023-04-03T07:38:09;4.75;;;1.00;;
21360;SDS011;10839;43.206;23.550;2023-04-03T07:40:35;1.50;;;0.80;;
21360;SDS011;10839;43.206;23.550;2023-04-03T07:43:03;1.90;;;0.75;;
21360;SDS011;10839;43.206;23.550;2023-04-03T07:45:29;7.20;;;1.50;;
21360;SDS011;10839;43.206;23.550;2023-04-03T07:47:55;3.97;;;1.20;;
21360;SDS011;10839;43.206;23.550;2023-04-03T07:50:21;3.63;;;1.10;;
21360;SDS011;10839;43.206;23.550;2023-04-03T07:52:47;4.05;;;1.75;;
21360;SDS011;10839;43.206;23.550;2023-04-03T07:55:14;5.07;;;2.22;;
21360;SDS011;10839;43.206;23.550;2023-04-03T07:57:40;9.77;;;3.60;;
21360;SDS011;10839;43.206;23.550;2023-04-03T08:00:06;4.97;;;2.08;;
21360;SDS011;10839;43.206;23.550;2023-04-03T08:02:40;10.05;;;3.70;;
21360;SDS011;10839;43.206;23.550;2023-04-03T08:05:06;10.77;;;4.90;;
21360;SDS011;10839;43.206;23.550;2023-04-03T08:07:32;7.03;;;1.90;;
21360;SDS011;10839;43.206;23.550;2023-04-03T08:09:57;3.63;;;1.40;;
21360;SDS011;10839;43.206;23.550;2023-04-03T08:12:23;3.88;;;1.20;;
21360;SDS011;10839;43.206;23.550;2023-04-03T08:14:49;3.70;;;1.60;;
21360;SDS011;10839;43.206;23.550;2023-04-03T08:17:17;3.63;;;1.80;;
21360;SDS011;10839;43.206;23.550;2023-04-03T08:19:43;1.40;;;0.90;;
21360;SDS011;10839;43.206;23.550;2023-04-03T08:22:09;1.23;;;0.90;;
21360;SDS011;10839;43.206;23.550;2023-04-03T08:24:35;11.82;;;6.45;;
21360;SDS011;10839;43.206;23.550;2023-04-03T08:27:01;29.00;;;20.05;;
21360;SDS011;10839;43.206;23.550;2023-04-03T08:29:27;3.10;;;2.40;;
21360;SDS011;10839;43.206;23.550;2023-04-03T08:31:53;2.40;;;1.80;;
21360;SDS011;10839;43.206;23.550;2023-04-03T08:34:20;2.75;;;1.48;;
21360;SDS011;10839;43.206;23.550;2023-04-03T08:36:46;1.42;;;1.23;;
21360;SDS011;10839;43.206;23.550;2023-04-03T08:39:12;7.18;;;4.05;;
21360;SDS011;10839;43.206;23.550;2023-04-03T08:41:44;10.10;;;6.85;;
21360;SDS011;10839;43.206;23.550;2023-04-03T08:47:02;2.78;;;1.70;;
21360;SDS011;10839;43.206;23.550;2023-04-03T08:49:55;7.47;;;3.25;;
21360;SDS011;10839;43.206;23.550;2023-04-03T08:52:32;4.13;;;2.53;;
21360;SDS011;10839;43.206;23.550;2023-04-03T08:55:01;2.83;;;1.70;;
21360;SDS011;10839;43.206;23.550;2023-04-03T08:57:33;4.10;;;2.30;;
21360;SDS011;10839;43.206;23.550;2023-04-03T09:00:20;3.28;;;2.38;;
21360;SDS011;10839;43.206;23.550;2023-04-03T09:02:52;2.20;;;1.70;;
21360;SDS011;10839;43.206;23.550;2023-04-03T09:05:25;2.85;;;1.25;;
21360;SDS011;10839;43.206;23.550;2023-04-03T09:07:57;2.08;;;1.40;;
21360;SDS011;10839;43.206;23.550;2023-04-03T09:10:29;1.70;;;0.90;;
21360;SDS011;10839;43.206;23.550;2023-04-03T09:13:04;2.00;;;1.00;;
21360;SDS011;10839;43.206;23.550;2023-04-03T09:15:50;2.90;;;1.38;;
21360;SDS011;10839;43.206;23.550;2023-04-03T09:18:50;5.72;;;1.50;;
21360;SDS011;10839;43.206;23.550;2023-04-03T09:23:54;3.35;;;1.00;;
21360;SDS011;10839;43.206;23.550;2023-04-03T09:26:25;3.58;;;1.27;;
21360;SDS011;10839;43.206;23.550;2023-04-03T09:28:57;2.58;;;1.35;;
21360;SDS011;10839;43.206;23.550;2023-04-03T09:31:27;2.45;;;1.48;;
21360;SDS011;10839;43.206;23.550;2023-04-03T09:34:01;3.05;;;1.42;;
21360;SDS011;10839;43.206;23.550;2023-04-03T09:36:39;5.80;;;1.08;;
21360;SDS011;10839;43.206;23.550;2023-04-03T09:39:27;2.63;;;0.90;;
21360;SDS011;10839;43.206;23.550;2023-04-03T09:41:55;1.40;;;1.30;;
21360;SDS011;10839;43.206;23.550;2023-04-03T09:44:23;4.70;;;2.53;;
21360;SDS011;10839;43.206;23.550;2023-04-03T09:46:57;10.50;;;7.15;;
21360;SDS011;10839;43.206;23.550;2023-04-03T09:49:23;6.53;;;3.70;;
21360;SDS011;10839;43.206;23.550;2023-04-03T09:51:50;5.70;;;3.25;;
21360;SDS011;10839;43.206;23.550;2023-04-03T09:54:30;3.90;;;2.45;;
21360;SDS011;10839;43.206;23.550;2023-04-03T09:56:57;2.47;;;1.58;;
21360;SDS011;10839;43.206;23.550;2023-04-03T09:59:29;4.60;;;2.88;;
21360;SDS011;10839;43.206;23.550;2023-04-03T10:01:58;2.42;;;1.60;;
21360;SDS011;10839;43.206;23.550;2023-04-03T10:04:37;1.92;;;1.35;;
21360;SDS011;10839;43.206;23.550;2023-04-03T10:07:05;2.90;;;1.67;;
21360;SDS011;10839;43.206;23.550;2023-04-03T10:09:56;5.53;;;2.10;;
21360;SDS011;10839;43.206;23.550;2023-04-03T10:12:24;1.52;;;1.33;;
21360;SDS011;10839;43.206;23.550;2023-04-03T10:17:48;2.72;;;1.70;;
21360;SDS011;10839;43.206;23.550;2023-04-03T10:29:06;2.92;;;1.83;;
21360;SDS011;10839;43.206;23.550;2023-04-03T10:31:55;2.13;;;1.30;;
21360;SDS011;10839;43.206;23.550;2023-04-03T10:34:42;2.60;;;1.40;;
21360;SDS011;10839;43.206;23.550;2023-04-03T10:37:16;1.90;;;1.45;;
21360;SDS011;10839;43.206;23.550;2023-04-03T10:50:38;2.55;;;1.38;;
21360;SDS011;10839;43.206;23.550;2023-04-03T10:56:07;2.03;;;1.60;;
21360;SDS011;10839;43.206;23.550;2023-04-03T10:58:58;4.38;;;1.63;;
21360;SDS011;10839;43.206;23.550;2023-04-03T11:01:53;4.68;;;1.80;;
21360;SDS011;10839;43.206;23.550;2023-04-03T11:04:34;5.05;;;2.03;;
21360;SDS011;10839;43.206;23.550;2023-04-03T11:07:08;3.25;;;1.35;;
21360;SDS011;10839;43.206;23.550;2023-04-03T11:09:41;4.40;;;1.15;;
21360;SDS011;10839;43.206;23.550;2023-04-03T11:12:11;3.10;;;1.45;;
21360;SDS011;10839;43.206;23.550;2023-04-03T11:14:43;2.45;;;1.40;;
21360;SDS011;10839;43.206;23.550;2023-04-03T11:22:36;6.15;;;3.05;;
21360;SDS011;10839;43.206;23.550;2023-04-03T11:27:47;14.90;;;8.98;;
21360;SDS011;10839;43.206;23.550;2023-04-03T11:30:44;6.22;;;3.60;;
21360;SDS011;10839;43.206;23.550;2023-04-03T11:36:01;4.13;;;2.40;;
21360;SDS011;10839;43.206;23.550;2023-04-03T11:38:36;2.63;;;1.95;;
21360;SDS011;10839;43.206;23.550;2023-04-03T11:41:08;3.70;;;2.40;;
21360;SDS011;10839;43.206;23.550;2023-04-03T11:43:40;2.88;;;1.80;;
21360;SDS011;10839;43.206;23.550;2023-04-03T11:46:21;13.20;;;4.15;;
21360;SDS011;10839;43.206;23.550;2023-04-03T11:48:51;3.65;;;2.80;;
21360;SDS011;10839;43.206;23.550;2023-04-03T11:51:50;5.63;;;3.60;;
21360;SDS011;10839;43.206;23.550;2023-04-03T11:55:35;9.43;;;3.20;;
21360;SDS011;10839;43.206;23.550;2023-04-03T12:00:53;9.23;;;5.80;;
21360;SDS011;10839;43.206;23.550;2023-04-03T12:03:33;5.75;;;4.30;;
21360;SDS011;10839;43.206;23.550;2023-04-03T12:09:32;21.45;;;10.93;;
21360;SDS011;10839;43.206;23.550;2023-04-03T12:12:36;13.90;;;7.82;;
21360;SDS011;10839;43.206;23.550;2023-04-03T12:21:20;1.67;;;1.58;;
21360;SDS011;10839;43.206;23.550;2023-04-03T12:29:20;2.72;;;1.83;;
21360;SDS011;10839;43.206;23.550;2023-04-03T12:48:59;3.35;;;1.67;;
21360;SDS011;10839;43.206;23.550;2023-04-03T12:56:49;5.43;;;3.42;;
21360;SDS011;10839;43.206;23.550;2023-04-03T12:59:21;8.82;;;2.70;;
21360;SDS011;10839;43.206;23.550;2023-04-03T13:02:02;3.45;;;2.58;;
21360;SDS011;10839;43.206;23.550;2023-04-03T13:04:34;4.95;;;2.10;;
21360;SDS011;10839;43.206;23.550;2023-04-03T13:07:18;2.28;;;1.83;;
21360;SDS011;10839;43.206;23.550;2023-04-03T13:09:56;2.60;;;1.85;;
21360;SDS011;10839;43.206;23.550;2023-04-03T13:12:30;3.05;;;1.50;;
21360;SDS011;10839;43.206;23.550;2023-04-03T13:15:03;4.68;;;2.22;;
21360;SDS011;10839;43.206;23.550;2023-04-03T13:17:41;6.00;;;2.50;;
21360;SDS011;10839;43.206;23.550;2023-04-03T13:20:32;8.43;;;5.25;;
21360;SDS011;10839;43.206;23.550;2023-04-03T13:23:05;16.42;;;7.68;;
21360;SDS011;10839;43.206;23.550;2023-04-03T13:25:40;10.68;;;3.90;;
21360;SDS011;10839;43.206;23.550;2023-04-03T13:28:11;5.38;;;3.42;;
21360;SDS011;10839;43.206;23.550;2023-04-03T13:30:56;13.20;;;4.37;;
21360;SDS011;10839;43.206;23.550;2023-04-03T13:33:31;5.45;;;2.70;;
21360;SDS011;10839;43.206;23.550;2023-04-03T13:42:34;6.53;;;4.22;;
21360;SDS011;10839;43.206;23.550;2023-04-03T13:47:46;7.15;;;3.22;;
21360;SDS011;10839;43.206;23.550;2023-04-03T13:52:52;5.53;;;2.90;;
21360;SDS011;10839;43.206;23.550;2023-04-03T14:00:37;5.63;;;3.28;;
21360;SDS011;10839;43.206;23.550;2023-04-03T14:03:20;4.03;;;2.83;;
21360;SDS011;10839;43.206;23.550;2023-04-03T14:05:58;6.28;;;3.65;;
21360;SDS011;10839;43.206;23.550;2023-04-03T14:08:26;6.40;;;4.68;;
21360;SDS011;10839;43.206;23.550;2023-04-03T14:10:53;8.15;;;4.50;;
21360;SDS011;10839;43.206;23.550;2023-04-03T14:13:20;10.20;;;5.97;;
21360;SDS011;10839;43.206;23.550;2023-04-03T14:15:46;5.10;;;4.07;;
21360;SDS011;10839;43.206;23.550;2023-04-03T14:18:15;1.60;;;1.33;;
21360;SDS011;10839;43.206;23.550;2023-04-03T14:20:43;2.38;;;1.50;;
21360;SDS011;10839;43.206;23.550;2023-04-03T14:23:09;2.05;;;1.02;;
21360;SDS011;10839;43.206;23.550;2023-04-03T14:25:36;13.30;;;7.68;;
21360;SDS011;10839;43.206;23.550;2023-04-03T14:28:19;1.65;;;1.40;;
21360;SDS011;10839;43.206;23.550;2023-04-03T14:30:48;7.80;;;4.38;;
21360;SDS011;10839;43.206;23.550;2023-04-03T14:33:17;5.68;;;3.75;;
21360;SDS011;10839;43.206;23.550;2023-04-03T14:35:46;3.53;;;3.00;;
21360;SDS011;10839;43.206;23.550;2023-04-03T14:40:51;13.82;;;6.18;;
21360;SDS011;10839;43.206;23.550;2023-04-03T14:43:18;8.43;;;4.10;;
21360;SDS011;10839;43.206;23.550;2023-04-03T14:45:46;5.93;;;4.07;;
21360;SDS011;10839;43.206;23.550;2023-04-03T14:48:15;4.28;;;2.75;;
21360;SDS011;10839;43.206;23.550;2023-04-03T14:50:46;4.53;;;3.40;;
21360;SDS011;10839;43.206;23.550;2023-04-03T14:53:12;7.85;;;4.60;;
21360;SDS011;10839;43.206;23.550;2023-04-03T14:55:42;14.90;;;8.00;;
21360;SDS011;10839;43.206;23.550;2023-04-03T14:58:18;13.98;;;7.00;;
21360;SDS011;10839;43.206;23.550;2023-04-03T15:00:46;20.65;;;10.45;;
21360;SDS011;10839;43.206;23.550;2023-04-03T15:03:13;19.60;;;9.63;;
21360;SDS011;10839;43.206;23.550;2023-04-03T15:05:43;26.85;;;13.10;;
21360;SDS011;10839;43.206;23.550;2023-04-03T15:08:18;16.75;;;9.82;;
21360;SDS011;10839;43.206;23.550;2023-04-03T15:10:46;19.48;;;10.20;;
21360;SDS011;10839;43.206;23.550;2023-04-03T15:13:13;15.05;;;10.80;;
21360;SDS011;10839;43.206;23.550;2023-04-03T15:15:39;22.70;;;14.40;;
21360;SDS011;10839;43.206;23.550;2023-04-03T15:18:06;17.90;;;11.40;;
21360;SDS011;10839;43.206;23.550;2023-04-03T15:20:36;17.38;;;11.23;;
21360;SDS011;10839;43.206;23.550;2023-04-03T15:23:01;21.83;;;13.50;;
21360;SDS011;10839;43.206;23.550;2023-04-03T15:25:28;14.68;;;9.38;;
21360;SDS011;10839;43.206;23.550;2023-04-03T15:27:54;15.13;;;8.93;;
21360;SDS011;10839;43.206;23.550;2023-04-03T15:30:21;15.85;;;9.32;;
21360;SDS011;10839;43.206;23.550;2023-04-03T15:32:47;13.70;;;8.98;;
21360;SDS011;10839;43.206;23.550;2023-04-03T15:35:13;14.32;;;8.45;;
21360;SDS011;10839;43.206;23.550;2023-04-03T15:37:39;7.90;;;5.40;;
21360;SDS011;10839;43.206;23.550;2023-04-03T15:40:05;7.97;;;5.50;;
21360;SDS011;10839;43.206;23.550;2023-04-03T15:42:32;7.65;;;5.45;;
21360;SDS011;10839;43.206;23.550;2023-04-03T15:44:58;10.75;;;6.93;;
21360;SDS011;10839;43.206;23.550;2023-04-03T15:47:24;9.68;;;6.93;;
21360;SDS011;10839;43.206;23.550;2023-04-03T15:49:52;9.75;;;6.70;;
21360;SDS011;10839;43.206;23.550;2023-04-03T15:52:19;8.30;;;5.65;;
21360;SDS011;10839;43.206;23.550;2023-04-03T15:54:46;9.45;;;5.85;;
21360;SDS011;10839;43.206;23.550;2023-04-03T15:57:12;6.72;;;5.07;;
21360;SDS011;10839;43.206;23.550;2023-04-03T15:59:38;10.07;;;7.15;;
21360;SDS011;10839;43.206;23.550;2023-04-03T16:02:04;9.73;;;7.30;;
21360;SDS011;10839;43.206;23.550;2023-04-03T16:04:32;10.40;;;6.85;;
21360;SDS011;10839;43.206;23.550;2023-04-03T16:07:00;8.77;;;6.90;;
21360;SDS011;10839;43.206;23.550;2023-04-03T16:09:28;11.70;;;7.88;;
21360;SDS011;10839;43.206;23.550;2023-04-03T16:11:54;10.40;;;7.47;;
21360;SDS011;10839;43.206;23.550;2023-04-03T16:14:21;12.18;;;9.02;;
21360;SDS011;10839;43.206;23.550;2023-04-03T16:16:47;10.93;;;7.70;;
21360;SDS011;10839;43.206;23.550;2023-04-03T16:19:13;8.95;;;7.30;;
21360;SDS011;10839;43.206;23.550;2023-04-03T16:21:39;11.77;;;7.93;;
21360;SDS011;10839;43.206;23.550;2023-04-03T16:24:05;10.48;;;7.15;;
21360;SDS011;10839;43.206;23.550;2023-04-03T16:26:31;11.07;;;7.70;;
21360;SDS011;10839;43.206;23.550;2023-04-03T16:28:57;12.93;;;8.75;;